Evanston, Wyoming
Current Conditions -  °F | °C
As of 6:00 AM on Saturday 20 Dec 2014 (Local Time) from KEVW Reporting Station
Overcast Overcast  
Wind Chill: 20°   Ceiling: 1300
Heat Index: 29°   Visibility: 10mi
Dew Point: 27°   Wind: 9mph
Humidity: 92%   Direction: 220°SW
Pressure: 30.06"   Gusts: NA
Location:  41.27°N, 110.96°W
Report Text: KEVW 201300Z AUTO 22008KT 10SM BKN013 OVC047 M02/M03 A3006 RMK AO2 T10171028
Loading
Personal Weather Stations






























Interactive Weather Map New forecast layout! Learn more

10-Day Weather Forecast

Advertisements
Track Severe Weather on mobile